This is the latest recevied weather packets stored in our database for station/object DM5KA-13. If no packets are shown the sender has not sent any weather packets the latest 10 day(s).
| Time | Temp. | Humidity | Pressure | Rain* | Wind** | Luminosity | Snow |
|---|---|---|---|---|---|---|---|
| 1777454704 | 11.11° C | 29% | 1031.1 hPa | 0 mm | 0.45 m/s, 0° | - | - |
| 1777454404 | 12.22° C | 28% | 1031.1 hPa | 0 mm | 0.45 m/s, 0° | - | - |
| 1777454104 | 12.22° C | 28% | 1031 hPa | 0 mm | 0.45 m/s, 0° | - | - |
| 1777453804 | 11.11° C | 29% | 1031 hPa | 0 mm | 0.45 m/s, 0° | - | - |
| 1777453504 | 11.11° C | 29% | 1031 hPa | 0 mm | 0.89 m/s, 0° | - | - |
| 1777453204 | 10° C | 29% | 1031 hPa | 0 mm | 0.89 m/s, 0° | - | - |
| 1777452016 | 10° C | 29% | 1030.6 hPa | 0 mm | 0.89 m/s, 0° | - | - |
| 1777451716 | 10° C | 29% | 1030.6 hPa | 0 mm | 1.34 m/s, 0° | - | - |
| 1777451416 | 10° C | 28% | 1030.5 hPa | 0 mm | 2.24 m/s, 0° | - | - |
| 1777451116 | 10° C | 29% | 1030.5 hPa | 0 mm | 2.24 m/s, 0° | - | - |
| 1777450816 | 11.11° C | 27% | 1030.5 hPa | 0 mm | 0.45 m/s, 0° | - | - |
| 1777450516 | 10° C | 29% | 1030.4 hPa | 0 mm | 0.89 m/s, 0° | - | - |
| 1777450216 | 11.11° C | 28% | 1030.4 hPa | 0 mm | 1.34 m/s, 0° | - | - |
| 1777449916 | 10° C | 28% | 1030.4 hPa | 0 mm | 0.45 m/s, 0° | - | - |
| 1777449616 | 10° C | 28% | 1030.4 hPa | 0 mm | 0.45 m/s, 0° | - | - |
| 1777449316 | 10° C | 29% | 1030.3 hPa | 0 mm | 1.79 m/s, 0° | - | - |
| 1777448428 | 10° C | 31% | 1030.1 hPa | 0 mm | 0.45 m/s, 0° | - | - |
| 1777448104 | 8.89° C | 33% | 1030.1 hPa | 0 mm | 1.34 m/s, 0° | - | - |
| 1777447804 | 8.89° C | 36% | 1030.1 hPa | 0 mm | 1.34 m/s, 0° | - | - |
| 1777447504 | 8.89° C | 40% | 1030.1 hPa | 0 mm | 0.45 m/s, 0° | - | - |
| 1777447204 | 11.11° C | 38% | 1030.1 hPa | 0 mm | 0.89 m/s, 0° | - | - |
| 1777446904 | 10° C | 40% | 1030 hPa | 0 mm | 0.45 m/s, 0° | - | - |
| 1777446604 | 10° C | 40% | 1030 hPa | 0 mm | 0.45 m/s, 0° | - | - |
| 1777446304 | 8.89° C | 41% | 1029.9 hPa | 0 mm | 0 m/s | - | - |
| 1777446004 | 8.89° C | 44% | 1029.9 hPa | 0 mm | 0 m/s | - | - |
* Rain latest hour (hover to see other rain measurements)
** Current wind speed in m/s (hover to see current wind gust speed)